Accueil
METAR-TAF:

METAR-TAF

Aéroports :

Wainwright, Alaska, États-Unis

latitude: 70-38N, longitude: 159-51W, altitude: 12 m

Observation

Le bulletin a été fait il y a 3 heures et 17 minutes, à 01:53 UTC
Vent 24 kt de est/nord-est
Température -14°C
Humidité 78%
Pression 1005 hPa
Visibilité: 1.6 km
Nuages épars à une hauteur de 700 ft
Ciel couvert à une hauteur de 1900 ft
Chasse-neige élevée, brume

METAR: PAWI 080153Z AUTO 07024KT 1SM BLSN BR SCT007 OVC019 M14/M17 A2969 RMK PK WND 07032/0106 UPB33E47SNB02E33B36E44 SLP056 T11441167 TSNO PNO VIA AUTODIAL

Heure: 20:10 (05:10 UTC)


TAF: absent

Observations et prévisions météorologiques de plus de 4000 aéroports (messages METAR et TAF).

Les stations disponibles sont représentées par des disques jaunes et rouges sur la carte.

Passer la souris dessus pour voir le nom de la station.

Cliquer dessus pour voir les observations et prévisions météorologiques.

Pour changer de carte: cliquez sur les boutons verts avec une croix noire pour zoomer, sur le bouton vert avec un tiret pour effectuer un zoom arrière, ou sur les flèches vertes pour les cartes adjacentes.


METAR-TAF: